Rhodes, Iowa
Current Conditions -  °F | °C
As of 8:53 AM on Thursday 23 Oct 2014 (Local Time) from KMIW Reporting Station
Overcast Overcast  
Wind Chill: 47°   Ceiling: 1400
Heat Index: 49°   Visibility: 10mi
Dew Point: 47°   Wind: 6mph
Humidity: 93%   Direction: 150°SSE
Pressure: 30.04"   Gusts: NA
Location:  41.93°N, 93.19°W
Report Text: KMIW 231353Z AUTO 15005KT 10SM OVC014 09/08 A3004 RMK AO2 RAB20E35 SLP173 P0000 T00940083
Loading
Personal Weather Stations






























Interactive Weather Map
Tropical Storm Tracking
New forecast layout! Learn more

10-Day Weather Forecast

Advertisements
Track Severe Weather on mobile